»·PEaware :: N973SE KSBP-KOXR

N973SE :: KSBP-KOXR

FLIGHT INFORMATION

Flight Status: Arrived
Operator: Privately registered:
United States
More flights under this callsign
Pilot: Stig E. (4778)
Aircraft: CESSNA 310
(C310)
More flights by this aircraft type
Origin: KSBP San Luis Co Regl
United States
Destination: KOXR Oxnard
United States
More flights between these airports :: More routes between these airports
Route: MISHI FLW GMN V299 FIM NELLY
File this flight plan on PilotEdge
Remarks:
Altitude:
(Current/Filed)
11,500ft
Speed:
(Current/Filed)
170kts
Departed: 31-Jan-19 10:44 PM
Arrived: 31-Jan-19 11:36 PM
Distance/Time
Traveled:
95nm/0:52
Distance/Time
To Go:
Arrived

Flight Plot

Page will automatically refresh every two minutes.

Flight plan parsing failed; only flown route is shown


Map Options




Map Legend


Flown Route
Filed Route
Departure Airport
Arrival Airport
Navaid (VOR, NDB)
Fix

Horizontal Profiles

Position Reports

Time Latitude Longitude Heading Altitude Ground
Speed
31-Jan-19 22:28 35.238241 -120.639983 308 215ft 0kts
31-Jan-19 22:29 35.238241 -120.639983 308 215ft 0kts
31-Jan-19 22:30 35.238241 -120.639983 308 215ft 0kts
31-Jan-19 22:31 35.238241 -120.639983 308 215ft 0kts
31-Jan-19 22:31 35.238241 -120.639983 308 215ft 0kts
31-Jan-19 22:33 35.238241 -120.639983 308 215ft 0kts
31-Jan-19 22:34 35.238241 -120.639983 308 215ft 0kts
31-Jan-19 22:35 35.238241 -120.639983 308 215ft 0kts
31-Jan-19 22:35 35.238241 -120.639983 308 215ft 0kts
31-Jan-19 22:36 35.238241 -120.639983 308 215ft 0kts
31-Jan-19 22:37 35.238241 -120.639983 308 215ft 0kts
31-Jan-19 22:39 35.238241 -120.639983 308 215ft 0kts
31-Jan-19 22:39 35.237454 -120.639246 125 215ft 12kts
31-Jan-19 22:40 35.234989 -120.634947 124 216ft 16kts
31-Jan-19 22:41 35.233086 -120.631949 254 215ft 0kts
31-Jan-19 22:42 35.233086 -120.631949 254 215ft 0kts
31-Jan-19 22:43 35.234899 -120.636765 304 216ft 88kts
31-Jan-19 22:44 35.253475 -120.673839 267 1371ft 157kts
31-Jan-19 22:45 35.223456 -120.676011 123 2600ft 154kts
31-Jan-19 22:46 35.200899 -120.631498 122 3806ft 152kts
31-Jan-19 22:47 35.182255 -120.584796 116 4923ft 155kts
31-Jan-19 22:48 35.164426 -120.535802 112 5926ft 158kts
31-Jan-19 22:49 35.147773 -120.485611 112 6925ft 158kts
31-Jan-19 22:50 35.133836 -120.434569 98 7921ft 156kts
31-Jan-19 22:51 35.129253 -120.382218 95 8910ft 154kts
31-Jan-19 22:52 35.125675 -120.330189 95 9905ft 153kts
31-Jan-19 22:53 35.122153 -120.278311 96 10911ft 153kts
31-Jan-19 22:54 35.118449 -120.224805 97 11504ft 172kts
31-Jan-19 22:55 35.114207 -120.163142 96 11501ft 187kts
31-Jan-19 22:56 35.109836 -120.099941 96 11502ft 185kts
31-Jan-19 22:57 35.105526 -120.037133 96 11503ft 185kts
31-Jan-19 22:58 35.101164 -119.974259 96 11504ft 185kts
31-Jan-19 22:59 35.096748 -119.911645 96 11505ft 185kts
31-Jan-19 23:00 35.088932 -119.850158 109 11507ft 183kts
31-Jan-19 23:01 35.072435 -119.791143 109 11507ft 183kts
31-Jan-19 23:02 35.055769 -119.732137 109 11503ft 183kts
31-Jan-19 23:03 35.039057 -119.673174 109 11494ft 183kts
31-Jan-19 23:04 35.022250 -119.614137 108 11487ft 184kts
31-Jan-19 23:05 35.005357 -119.554871 108 11481ft 186kts
31-Jan-19 23:06 34.988179 -119.494715 107 11478ft 188kts
31-Jan-19 23:07 34.970818 -119.434042 107 11479ft 190kts
31-Jan-19 23:08 34.953162 -119.372471 107 11477ft 193kts
31-Jan-19 23:09 34.935259 -119.310189 107 11476ft 196kts
31-Jan-19 23:10 34.917005 -119.246828 107 11473ft 198kts
31-Jan-19 23:11 34.898559 -119.182938 108 11472ft 200kts
31-Jan-19 23:12 34.879866 -119.118343 108 11472ft 201kts
31-Jan-19 23:13 34.861107 -119.053724 108 11475ft 202kts
31-Jan-19 23:14 34.842330 -118.989212 108 11485ft 201kts
31-Jan-19 23:15 34.823642 -118.925089 107 11497ft 199kts
31-Jan-19 23:16 34.801940 -118.868279 154 11405ft 178kts
31-Jan-19 23:17 34.751287 -118.864510 177 10665ft 187kts
31-Jan-19 23:18 34.699108 -118.865866 179 9864ft 188kts
31-Jan-19 23:19 34.647330 -118.867961 179 9152ft 185kts
31-Jan-19 23:20 34.595995 -118.870238 180 8448ft 184kts
31-Jan-19 23:21 34.544892 -118.872676 181 7745ft 183kts
31-Jan-19 23:22 34.494209 -118.874940 181 7044ft 182kts
31-Jan-19 23:23 34.443650 -118.877192 181 6341ft 180kts
31-Jan-19 23:24 34.393610 -118.879420 181 5640ft 179kts
31-Jan-19 23:25 34.346133 -118.889591 211 5018ft 174kts
31-Jan-19 23:26 34.305440 -118.920562 213 4419ft 172kts
31-Jan-19 23:27 34.265177 -118.951751 213 3817ft 170kts
31-Jan-19 23:28 34.225457 -118.982280 212 3233ft 168kts
31-Jan-19 23:29 34.197981 -119.014354 269 3014ft 125kts
31-Jan-19 23:30 34.198458 -119.055796 272 2407ft 120kts
31-Jan-19 23:31 34.199200 -119.096020 274 1756ft 119kts
31-Jan-19 23:32 34.199989 -119.136046 272 1106ft 118kts
31-Jan-19 23:33 34.200421 -119.175404 272 475ft 109kts
31-Jan-19 23:34 34.200814 -119.205492 272 40ft 51kts
31-Jan-19 23:35 34.199851 -119.209359 88 37ft 12kts
31-Jan-19 23:36 34.199787 -119.205164 88 40ft 12kts
31-Jan-19 23:37 34.199839 -119.200971 94 44ft 11kts
31-Jan-19 23:38 34.198649 -119.198202 86 45ft 0kts
31-Jan-19 23:39 34.198649 -119.198201 87 45ft 0kts
31-Jan-19 23:40 34.198649 -119.198201 87 45ft 0kts

Navigation Log

Ident Type
Flight plan parsing failed, navigation log unavailable